sensor_id;sensor_type;location;lat;lon;timestamp;P1;durP1;ratioP1;P2;durP2;ratioP2
20073;SDS011;10197;54.282;10.078;2024-02-26T00:01:09;10.10;;;8.82;;
20073;SDS011;10197;54.282;10.078;2024-02-26T00:03:38;9.75;;;8.38;;
20073;SDS011;10197;54.282;10.078;2024-02-26T00:06:07;10.35;;;9.18;;
20073;SDS011;10197;54.282;10.078;2024-02-26T00:08:34;10.23;;;8.68;;
20073;SDS011;10197;54.282;10.078;2024-02-26T00:11:00;11.63;;;9.60;;
20073;SDS011;10197;54.282;10.078;2024-02-26T00:13:28;13.98;;;10.10;;
20073;SDS011;10197;54.282;10.078;2024-02-26T00:15:55;11.13;;;9.40;;
20073;SDS011;10197;54.282;10.078;2024-02-26T00:18:21;14.88;;;10.13;;
20073;SDS011;10197;54.282;10.078;2024-02-26T00:20:50;15.55;;;10.00;;
20073;SDS011;10197;54.282;10.078;2024-02-26T00:23:16;24.98;;;10.82;;
20073;SDS011;10197;54.282;10.078;2024-02-26T00:25:43;28.50;;;10.38;;
20073;SDS011;10197;54.282;10.078;2024-02-26T00:28:11;27.20;;;11.43;;
20073;SDS011;10197;54.282;10.078;2024-02-26T00:30:38;39.33;;;11.48;;
20073;SDS011;10197;54.282;10.078;2024-02-26T00:33:05;29.63;;;11.90;;
20073;SDS011;10197;54.282;10.078;2024-02-26T00:35:32;15.73;;;10.70;;
20073;SDS011;10197;54.282;10.078;2024-02-26T00:38:00;13.65;;;10.55;;
20073;SDS011;10197;54.282;10.078;2024-02-26T00:40:28;15.57;;;10.95;;
20073;SDS011;10197;54.282;10.078;2024-02-26T00:42:55;17.30;;;11.27;;
20073;SDS011;10197;54.282;10.078;2024-02-26T00:45:21;15.10;;;11.32;;
20073;SDS011;10197;54.282;10.078;2024-02-26T00:47:48;14.00;;;10.93;;
20073;SDS011;10197;54.282;10.078;2024-02-26T00:50:15;14.93;;;11.18;;
20073;SDS011;10197;54.282;10.078;2024-02-26T00:52:41;20.45;;;11.25;;
20073;SDS011;10197;54.282;10.078;2024-02-26T00:55:11;19.33;;;10.73;;
20073;SDS011;10197;54.282;10.078;2024-02-26T00:57:38;19.98;;;10.05;;
20073;SDS011;10197;54.282;10.078;2024-02-26T01:00:06;12.82;;;9.63;;
20073;SDS011;10197;54.282;10.078;2024-02-26T01:02:33;14.85;;;9.70;;
20073;SDS011;10197;54.282;10.078;2024-02-26T01:05:00;13.70;;;9.82;;
20073;SDS011;10197;54.282;10.078;2024-02-26T01:07:28;17.20;;;10.63;;
20073;SDS011;10197;54.282;10.078;2024-02-26T01:09:53;15.75;;;10.63;;
20073;SDS011;10197;54.282;10.078;2024-02-26T01:12:22;16.50;;;10.50;;
20073;SDS011;10197;54.282;10.078;2024-02-26T01:14:48;19.52;;;10.30;;
20073;SDS011;10197;54.282;10.078;2024-02-26T01:17:15;28.75;;;11.55;;
20073;SDS011;10197;54.282;10.078;2024-02-26T01:19:42;15.55;;;11.30;;
20073;SDS011;10197;54.282;10.078;2024-02-26T01:22:09;16.52;;;11.18;;
20073;SDS011;10197;54.282;10.078;2024-02-26T01:24:36;13.23;;;10.15;;
20073;SDS011;10197;54.282;10.078;2024-02-26T01:27:03;17.90;;;11.15;;
20073;SDS011;10197;54.282;10.078;2024-02-26T01:29:31;28.65;;;11.25;;
20073;SDS011;10197;54.282;10.078;2024-02-26T01:31:58;25.08;;;11.55;;
20073;SDS011;10197;54.282;10.078;2024-02-26T01:34:25;19.85;;;11.27;;
20073;SDS011;10197;54.282;10.078;2024-02-26T01:36:51;24.83;;;11.20;;
20073;SDS011;10197;54.282;10.078;2024-02-26T01:39:18;17.85;;;10.77;;
20073;SDS011;10197;54.282;10.078;2024-02-26T01:41:45;20.25;;;10.73;;
20073;SDS011;10197;54.282;10.078;2024-02-26T01:44:12;31.15;;;11.27;;
20073;SDS011;10197;54.282;10.078;2024-02-26T01:46:40;28.63;;;11.52;;
20073;SDS011;10197;54.282;10.078;2024-02-26T01:49:07;20.85;;;11.65;;
20073;SDS011;10197;54.282;10.078;2024-02-26T01:51:35;25.30;;;11.73;;
20073;SDS011;10197;54.282;10.078;2024-02-26T01:54:02;28.13;;;11.52;;
20073;SDS011;10197;54.282;10.078;2024-02-26T01:56:30;24.70;;;12.13;;
20073;SDS011;10197;54.282;10.078;2024-02-26T01:58:57;24.20;;;11.40;;
20073;SDS011;10197;54.282;10.078;2024-02-26T02:01:25;22.58;;;11.60;;
20073;SDS011;10197;54.282;10.078;2024-02-26T02:03:53;55.15;;;11.70;;
20073;SDS011;10197;54.282;10.078;2024-02-26T02:06:20;44.83;;;10.95;;
20073;SDS011;10197;54.282;10.078;2024-02-26T02:08:47;43.70;;;10.80;;
20073;SDS011;10197;54.282;10.078;2024-02-26T02:11:16;25.65;;;11.07;;
20073;SDS011;10197;54.282;10.078;2024-02-26T02:13:45;29.67;;;10.88;;
20073;SDS011;10197;54.282;10.078;2024-02-26T02:16:12;22.10;;;11.15;;
20073;SDS011;10197;54.282;10.078;2024-02-26T02:18:39;38.20;;;10.35;;
20073;SDS011;10197;54.282;10.078;2024-02-26T02:21:07;27.08;;;10.65;;
20073;SDS011;10197;54.282;10.078;2024-02-26T02:23:34;20.90;;;10.25;;
20073;SDS011;10197;54.282;10.078;2024-02-26T02:26:01;23.52;;;10.02;;
20073;SDS011;10197;54.282;10.078;2024-02-26T02:28:28;21.45;;;10.18;;
20073;SDS011;10197;54.282;10.078;2024-02-26T02:30:54;28.73;;;10.13;;
20073;SDS011;10197;54.282;10.078;2024-02-26T02:33:21;27.73;;;9.98;;
20073;SDS011;10197;54.282;10.078;2024-02-26T02:35:48;17.55;;;9.43;;
20073;SDS011;10197;54.282;10.078;2024-02-26T02:38:17;23.15;;;10.13;;
20073;SDS011;10197;54.282;10.078;2024-02-26T02:40:44;22.83;;;10.25;;
20073;SDS011;10197;54.282;10.078;2024-02-26T02:43:10;32.00;;;10.07;;
20073;SDS011;10197;54.282;10.078;2024-02-26T02:45:37;20.55;;;9.93;;
20073;SDS011;10197;54.282;10.078;2024-02-26T02:48:04;36.65;;;9.57;;
20073;SDS011;10197;54.282;10.078;2024-02-26T02:50:31;41.05;;;9.95;;
20073;SDS011;10197;54.282;10.078;2024-02-26T02:52:57;35.65;;;10.43;;
20073;SDS011;10197;54.282;10.078;2024-02-26T02:55:26;60.42;;;10.65;;
20073;SDS011;10197;54.282;10.078;2024-02-26T02:57:54;29.25;;;9.88;;
20073;SDS011;10197;54.282;10.078;2024-02-26T03:00:20;24.08;;;9.48;;
20073;SDS011;10197;54.282;10.078;2024-02-26T03:02:48;13.30;;;8.70;;
20073;SDS011;10197;54.282;10.078;2024-02-26T03:05:14;26.65;;;9.55;;
20073;SDS011;10197;54.282;10.078;2024-02-26T03:07:41;21.42;;;9.52;;
20073;SDS011;10197;54.282;10.078;2024-02-26T03:10:09;20.30;;;9.57;;
20073;SDS011;10197;54.282;10.078;2024-02-26T03:12:38;15.68;;;9.85;;
20073;SDS011;10197;54.282;10.078;2024-02-26T03:15:04;18.83;;;9.45;;
20073;SDS011;10197;54.282;10.078;2024-02-26T03:17:32;14.38;;;9.90;;
20073;SDS011;10197;54.282;10.078;2024-02-26T03:19:58;15.45;;;9.60;;
20073;SDS011;10197;54.282;10.078;2024-02-26T03:22:25;34.17;;;8.82;;
20073;SDS011;10197;54.282;10.078;2024-02-26T03:24:52;29.60;;;8.40;;
20073;SDS011;10197;54.282;10.078;2024-02-26T03:27:18;14.90;;;8.85;;
20073;SDS011;10197;54.282;10.078;2024-02-26T03:29:46;14.10;;;8.10;;
20073;SDS011;10197;54.282;10.078;2024-02-26T03:32:13;11.05;;;8.77;;
20073;SDS011;10197;54.282;10.078;2024-02-26T03:34:40;12.32;;;8.27;;
20073;SDS011;10197;54.282;10.078;2024-02-26T03:37:08;21.67;;;8.32;;
20073;SDS011;10197;54.282;10.078;2024-02-26T03:39:36;16.67;;;8.02;;
20073;SDS011;10197;54.282;10.078;2024-02-26T03:42:03;15.77;;;8.20;;
20073;SDS011;10197;54.282;10.078;2024-02-26T03:44:29;12.00;;;7.43;;
20073;SDS011;10197;54.282;10.078;2024-02-26T03:46:58;19.55;;;8.05;;
20073;SDS011;10197;54.282;10.078;2024-02-26T03:49:24;22.75;;;8.50;;
20073;SDS011;10197;54.282;10.078;2024-02-26T03:51:51;21.02;;;11.43;;
20073;SDS011;10197;54.282;10.078;2024-02-26T03:54:18;34.00;;;15.60;;
20073;SDS011;10197;54.282;10.078;2024-02-26T03:56:44;40.33;;;16.77;;
20073;SDS011;10197;54.282;10.078;2024-02-26T03:59:11;32.17;;;12.02;;
20073;SDS011;10197;54.282;10.078;2024-02-26T04:01:38;21.25;;;10.00;;
20073;SDS011;10197;54.282;10.078;2024-02-26T04:04:06;23.08;;;9.05;;
20073;SDS011;10197;54.282;10.078;2024-02-26T04:06:33;29.35;;;8.73;;
20073;SDS011;10197;54.282;10.078;2024-02-26T04:08:59;25.52;;;8.80;;
20073;SDS011;10197;54.282;10.078;2024-02-26T04:11:29;19.25;;;8.10;;
20073;SDS011;10197;54.282;10.078;2024-02-26T04:13:55;22.70;;;8.85;;
20073;SDS011;10197;54.282;10.078;2024-02-26T04:16:22;17.73;;;8.20;;
20073;SDS011;10197;54.282;10.078;2024-02-26T04:18:49;17.25;;;8.98;;
20073;SDS011;10197;54.282;10.078;2024-02-26T04:21:17;33.83;;;8.13;;
20073;SDS011;10197;54.282;10.078;2024-02-26T04:23:44;21.50;;;7.82;;
20073;SDS011;10197;54.282;10.078;2024-02-26T04:26:10;50.88;;;8.07;;
20073;SDS011;10197;54.282;10.078;2024-02-26T04:28:37;41.83;;;10.23;;
20073;SDS011;10197;54.282;10.078;2024-02-26T04:31:04;31.50;;;9.30;;
20073;SDS011;10197;54.282;10.078;2024-02-26T04:33:33;21.98;;;8.45;;
20073;SDS011;10197;54.282;10.078;2024-02-26T04:36:00;22.10;;;10.05;;
20073;SDS011;10197;54.282;10.078;2024-02-26T04:38:28;37.10;;;10.88;;
20073;SDS011;10197;54.282;10.078;2024-02-26T04:40:55;22.70;;;10.82;;
20073;SDS011;10197;54.282;10.078;2024-02-26T04:43:21;17.38;;;10.43;;
20073;SDS011;10197;54.282;10.078;2024-02-26T04:45:48;19.95;;;9.88;;
20073;SDS011;10197;54.282;10.078;2024-02-26T04:48:16;35.58;;;10.85;;
20073;SDS011;10197;54.282;10.078;2024-02-26T04:50:43;41.05;;;10.57;;
20073;SDS011;10197;54.282;10.078;2024-02-26T04:53:09;27.38;;;11.00;;
20073;SDS011;10197;54.282;10.078;2024-02-26T04:55:37;28.55;;;10.15;;
20073;SDS011;10197;54.282;10.078;2024-02-26T04:58:04;23.15;;;10.52;;
20073;SDS011;10197;54.282;10.078;2024-02-26T05:00:31;36.42;;;12.55;;
20073;SDS011;10197;54.282;10.078;2024-02-26T05:02:57;27.88;;;13.32;;
20073;SDS011;10197;54.282;10.078;2024-02-26T05:05:24;19.85;;;10.65;;
20073;SDS011;10197;54.282;10.078;2024-02-26T05:07:51;38.08;;;11.00;;
20073;SDS011;10197;54.282;10.078;2024-02-26T05:10:18;29.30;;;10.13;;
20073;SDS011;10197;54.282;10.078;2024-02-26T05:12:46;14.30;;;9.93;;
20073;SDS011;10197;54.282;10.078;2024-02-26T05:15:13;23.65;;;11.02;;
20073;SDS011;10197;54.282;10.078;2024-02-26T05:17:43;30.67;;;11.93;;
20073;SDS011;10197;54.282;10.078;2024-02-26T05:20:10;18.35;;;10.07;;
20073;SDS011;10197;54.282;10.078;2024-02-26T05:22:37;24.95;;;11.07;;
20073;SDS011;10197;54.282;10.078;2024-02-26T05:25:04;16.70;;;10.63;;
20073;SDS011;10197;54.282;10.078;2024-02-26T05:27:31;19.73;;;12.40;;
20073;SDS011;10197;54.282;10.078;2024-02-26T05:29:59;22.38;;;14.38;;
20073;SDS011;10197;54.282;10.078;2024-02-26T05:32:26;36.42;;;13.68;;
20073;SDS011;10197;54.282;10.078;2024-02-26T05:34:52;27.13;;;12.93;;
20073;SDS011;10197;54.282;10.078;2024-02-26T05:37:19;22.13;;;11.85;;
20073;SDS011;10197;54.282;10.078;2024-02-26T05:39:46;18.90;;;11.63;;
20073;SDS011;10197;54.282;10.078;2024-02-26T05:42:12;13.05;;;10.48;;
20073;SDS011;10197;54.282;10.078;2024-02-26T05:44:39;18.58;;;10.30;;
20073;SDS011;10197;54.282;10.078;2024-02-26T05:47:07;19.45;;;11.82;;
20073;SDS011;10197;54.282;10.078;2024-02-26T05:49:34;17.52;;;11.27;;
20073;SDS011;10197;54.282;10.078;2024-02-26T05:52:01;17.10;;;10.68;;
20073;SDS011;10197;54.282;10.078;2024-02-26T05:54:27;13.00;;;9.90;;
20073;SDS011;10197;54.282;10.078;2024-02-26T05:56:54;11.63;;;10.40;;
20073;SDS011;10197;54.282;10.078;2024-02-26T05:59:21;12.45;;;10.48;;
20073;SDS011;10197;54.282;10.078;2024-02-26T06:01:47;20.77;;;9.95;;
20073;SDS011;10197;54.282;10.078;2024-02-26T06:04:15;16.95;;;10.63;;
20073;SDS011;10197;54.282;10.078;2024-02-26T06:06:43;13.50;;;9.80;;
20073;SDS011;10197;54.282;10.078;2024-02-26T06:09:10;21.27;;;10.27;;
20073;SDS011;10197;54.282;10.078;2024-02-26T06:11:37;9.70;;;8.70;;
20073;SDS011;10197;54.282;10.078;2024-02-26T06:14:04;15.15;;;9.43;;
20073;SDS011;10197;54.282;10.078;2024-02-26T06:16:31;13.70;;;10.13;;
20073;SDS011;10197;54.282;10.078;2024-02-26T06:18:58;14.23;;;9.18;;
20073;SDS011;10197;54.282;10.078;2024-02-26T06:21:27;11.20;;;9.50;;
20073;SDS011;10197;54.282;10.078;2024-02-26T06:23:54;10.73;;;9.57;;
20073;SDS011;10197;54.282;10.078;2024-02-26T06:26:21;10.82;;;9.15;;
20073;SDS011;10197;54.282;10.078;2024-02-26T06:28:47;11.57;;;9.63;;
20073;SDS011;10197;54.282;10.078;2024-02-26T06:31:14;15.43;;;11.35;;
20073;SDS011;10197;54.282;10.078;2024-02-26T06:33:42;15.45;;;12.77;;
20073;SDS011;10197;54.282;10.078;2024-02-26T06:36:09;12.82;;;10.57;;
20073;SDS011;10197;54.282;10.078;2024-02-26T06:38:37;11.82;;;10.02;;
20073;SDS011;10197;54.282;10.078;2024-02-26T06:41:03;11.77;;;10.00;;
20073;SDS011;10197;54.282;10.078;2024-02-26T06:43:30;13.02;;;11.02;;
20073;SDS011;10197;54.282;10.078;2024-02-26T06:45:57;14.13;;;11.50;;
20073;SDS011;10197;54.282;10.078;2024-02-26T06:48:24;19.08;;;13.88;;
20073;SDS011;10197;54.282;10.078;2024-02-26T06:50:51;17.90;;;13.05;;
20073;SDS011;10197;54.282;10.078;2024-02-26T06:53:17;17.27;;;12.82;;
20073;SDS011;10197;54.282;10.078;2024-02-26T06:55:45;14.73;;;11.55;;
20073;SDS011;10197;54.282;10.078;2024-02-26T06:58:15;15.88;;;12.52;;
20073;SDS011;10197;54.282;10.078;2024-02-26T07:00:42;17.42;;;13.10;;
20073;SDS011;10197;54.282;10.078;2024-02-26T07:03:09;25.13;;;15.95;;
20073;SDS011;10197;54.282;10.078;2024-02-26T07:05:36;23.00;;;14.88;;
20073;SDS011;10197;54.282;10.078;2024-02-26T07:08:03;13.57;;;11.07;;
20073;SDS011;10197;54.282;10.078;2024-02-26T07:10:30;12.95;;;10.35;;
20073;SDS011;10197;54.282;10.078;2024-02-26T07:12:59;10.82;;;9.10;;
20073;SDS011;10197;54.282;10.078;2024-02-26T07:15:25;9.48;;;8.20;;
20073;SDS011;10197;54.282;10.078;2024-02-26T07:17:53;10.25;;;9.15;;
20073;SDS011;10197;54.282;10.078;2024-02-26T07:20:20;10.40;;;9.15;;
20073;SDS011;10197;54.282;10.078;2024-02-26T07:22:47;11.63;;;9.05;;
20073;SDS011;10197;54.282;10.078;2024-02-26T07:25:13;12.82;;;9.90;;
20073;SDS011;10197;54.282;10.078;2024-02-26T07:27:41;12.50;;;9.55;;
20073;SDS011;10197;54.282;10.078;2024-02-26T07:30:10;12.27;;;10.07;;
20073;SDS011;10197;54.282;10.078;2024-02-26T07:32:37;15.52;;;11.63;;
20073;SDS011;10197;54.282;10.078;2024-02-26T07:35:04;23.77;;;11.77;;
20073;SDS011;10197;54.282;10.078;2024-02-26T07:37:31;17.40;;;11.23;;
20073;SDS011;10197;54.282;10.078;2024-02-26T07:39:58;25.67;;;11.07;;
20073;SDS011;10197;54.282;10.078;2024-02-26T07:42:24;26.00;;;12.27;;
20073;SDS011;10197;54.282;10.078;2024-02-26T07:44:51;24.95;;;11.82;;
20073;SDS011;10197;54.282;10.078;2024-02-26T07:47:19;20.48;;;11.40;;
20073;SDS011;10197;54.282;10.078;2024-02-26T07:49:46;23.33;;;11.38;;
20073;SDS011;10197;54.282;10.078;2024-02-26T07:52:13;26.08;;;10.65;;
20073;SDS011;10197;54.282;10.078;2024-02-26T07:54:41;29.10;;;12.13;;
20073;SDS011;10197;54.282;10.078;2024-02-26T07:57:08;43.35;;;12.18;;
20073;SDS011;10197;54.282;10.078;2024-02-26T07:59:34;24.52;;;11.52;;
20073;SDS011;10197;54.282;10.078;2024-02-26T08:02:01;23.98;;;11.98;;
20073;SDS011;10197;54.282;10.078;2024-02-26T08:04:31;22.67;;;12.07;;
20073;SDS011;10197;54.282;10.078;2024-02-26T08:06:58;37.88;;;12.23;;
20073;SDS011;10197;54.282;10.078;2024-02-26T08:09:24;19.70;;;12.23;;
20073;SDS011;10197;54.282;10.078;2024-02-26T08:11:52;13.48;;;10.40;;
20073;SDS011;10197;54.282;10.078;2024-02-26T08:14:20;26.25;;;11.10;;
20073;SDS011;10197;54.282;10.078;2024-02-26T08:16:46;26.15;;;11.45;;
20073;SDS011;10197;54.282;10.078;2024-02-26T08:19:16;18.65;;;10.15;;
20073;SDS011;10197;54.282;10.078;2024-02-26T08:21:44;19.40;;;10.25;;
20073;SDS011;10197;54.282;10.078;2024-02-26T08:24:10;25.15;;;9.65;;
20073;SDS011;10197;54.282;10.078;2024-02-26T08:26:37;19.85;;;9.63;;
20073;SDS011;10197;54.282;10.078;2024-02-26T08:29:04;16.65;;;8.38;;
20073;SDS011;10197;54.282;10.078;2024-02-26T08:31:31;15.63;;;8.30;;
20073;SDS011;10197;54.282;10.078;2024-02-26T08:33:58;12.75;;;8.65;;
20073;SDS011;10197;54.282;10.078;2024-02-26T08:36:25;16.30;;;8.35;;
20073;SDS011;10197;54.282;10.078;2024-02-26T08:38:54;19.58;;;7.97;;
20073;SDS011;10197;54.282;10.078;2024-02-26T08:41:20;16.38;;;7.30;;
20073;SDS011;10197;54.282;10.078;2024-02-26T08:43:47;21.23;;;7.25;;
20073;SDS011;10197;54.282;10.078;2024-02-26T08:46:13;17.52;;;6.47;;
20073;SDS011;10197;54.282;10.078;2024-02-26T08:48:40;12.15;;;7.22;;
20073;SDS011;10197;54.282;10.078;2024-02-26T08:51:07;20.42;;;6.97;;
20073;SDS011;10197;54.282;10.078;2024-02-26T08:53:34;23.27;;;7.10;;
20073;SDS011;10197;54.282;10.078;2024-02-26T08:56:03;14.43;;;5.88;;
20073;SDS011;10197;54.282;10.078;2024-02-26T08:58:30;10.60;;;6.35;;
20073;SDS011;10197;54.282;10.078;2024-02-26T09:00:57;19.27;;;6.43;;
20073;SDS011;10197;54.282;10.078;2024-02-26T09:03:24;28.45;;;7.60;;
20073;SDS011;10197;54.282;10.078;2024-02-26T09:05:51;11.02;;;6.93;;
20073;SDS011;10197;54.282;10.078;2024-02-26T09:08:18;14.65;;;6.18;;
20073;SDS011;10197;54.282;10.078;2024-02-26T09:10:45;16.83;;;6.20;;
20073;SDS011;10197;54.282;10.078;2024-02-26T09:13:13;20.58;;;7.07;;
20073;SDS011;10197;54.282;10.078;2024-02-26T09:15:39;37.40;;;6.97;;
20073;SDS011;10197;54.282;10.078;2024-02-26T09:18:06;18.25;;;6.72;;
20073;SDS011;10197;54.282;10.078;2024-02-26T09:20:33;37.50;;;7.00;;
20073;SDS011;10197;54.282;10.078;2024-02-26T09:23:00;13.23;;;6.63;;
20073;SDS011;10197;54.282;10.078;2024-02-26T09:25:27;18.20;;;6.90;;
20073;SDS011;10197;54.282;10.078;2024-02-26T09:27:54;9.23;;;6.82;;
20073;SDS011;10197;54.282;10.078;2024-02-26T09:30:22;23.25;;;6.45;;
20073;SDS011;10197;54.282;10.078;2024-02-26T09:32:49;10.52;;;7.15;;
20073;SDS011;10197;54.282;10.078;2024-02-26T09:35:16;26.30;;;7.90;;
20073;SDS011;10197;54.282;10.078;2024-02-26T09:37:42;9.20;;;7.28;;
20073;SDS011;10197;54.282;10.078;2024-02-26T09:40:10;8.50;;;7.22;;
20073;SDS011;10197;54.282;10.078;2024-02-26T09:42:38;8.98;;;7.07;;
20073;SDS011;10197;54.282;10.078;2024-02-26T09:45:11;10.55;;;6.93;;
20073;SDS011;10197;54.282;10.078;2024-02-26T09:47:41;18.73;;;7.75;;
20073;SDS011;10197;54.282;10.078;2024-02-26T09:50:09;12.40;;;7.82;;
20073;SDS011;10197;54.282;10.078;2024-02-26T09:52:39;12.13;;;8.70;;
20073;SDS011;10197;54.282;10.078;2024-02-26T09:55:07;9.85;;;7.50;;
20073;SDS011;10197;54.282;10.078;2024-02-26T09:57:35;11.35;;;8.65;;
20073;SDS011;10197;54.282;10.078;2024-02-26T10:00:03;18.20;;;8.20;;
20073;SDS011;10197;54.282;10.078;2024-02-26T10:02:33;10.75;;;7.80;;
20073;SDS011;10197;54.282;10.078;2024-02-26T10:05:03;14.65;;;8.00;;
20073;SDS011;10197;54.282;10.078;2024-02-26T10:07:31;10.23;;;7.47;;
20073;SDS011;10197;54.282;10.078;2024-02-26T10:09:58;9.88;;;7.85;;
20073;SDS011;10197;54.282;10.078;2024-02-26T10:12:25;11.73;;;7.72;;
20073;SDS011;10197;54.282;10.078;2024-02-26T10:14:53;10.23;;;8.05;;
20073;SDS011;10197;54.282;10.078;2024-02-26T10:17:20;9.52;;;8.05;;
20073;SDS011;10197;54.282;10.078;2024-02-26T10:19:47;8.27;;;7.15;;
20073;SDS011;10197;54.282;10.078;2024-02-26T10:22:17;10.77;;;7.80;;
20073;SDS011;10197;54.282;10.078;2024-02-26T10:24:46;8.50;;;7.28;;
20073;SDS011;10197;54.282;10.078;2024-02-26T10:27:13;7.63;;;6.78;;
20073;SDS011;10197;54.282;10.078;2024-02-26T10:29:41;10.63;;;7.78;;
20073;SDS011;10197;54.282;10.078;2024-02-26T10:32:08;9.25;;;7.63;;
20073;SDS011;10197;54.282;10.078;2024-02-26T10:34:36;8.45;;;7.40;;
20073;SDS011;10197;54.282;10.078;2024-02-26T10:37:04;8.52;;;7.57;;
20073;SDS011;10197;54.282;10.078;2024-02-26T10:39:32;9.52;;;7.25;;
20073;SDS011;10197;54.282;10.078;2024-02-26T10:41:59;9.02;;;7.45;;
20073;SDS011;10197;54.282;10.078;2024-02-26T10:44:30;8.90;;;7.45;;
20073;SDS011;10197;54.282;10.078;2024-02-26T10:46:57;9.77;;;7.75;;
20073;SDS011;10197;54.282;10.078;2024-02-26T10:49:24;9.32;;;7.53;;
20073;SDS011;10197;54.282;10.078;2024-02-26T10:51:51;9.15;;;7.03;;
20073;SDS011;10197;54.282;10.078;2024-02-26T10:54:21;9.63;;;7.75;;
20073;SDS011;10197;54.282;10.078;2024-02-26T10:56:49;9.68;;;8.15;;
20073;SDS011;10197;54.282;10.078;2024-02-26T10:59:16;10.43;;;8.18;;
20073;SDS011;10197;54.282;10.078;2024-02-26T11:01:46;11.02;;;8.63;;
20073;SDS011;10197;54.282;10.078;2024-02-26T11:04:16;12.77;;;9.18;;
20073;SDS011;10197;54.282;10.078;2024-02-26T11:06:43;10.23;;;8.32;;
20073;SDS011;10197;54.282;10.078;2024-02-26T11:09:12;16.17;;;10.82;;
20073;SDS011;10197;54.282;10.078;2024-02-26T11:11:39;11.98;;;9.48;;
20073;SDS011;10197;54.282;10.078;2024-02-26T11:14:08;13.70;;;9.80;;
20073;SDS011;10197;54.282;10.078;2024-02-26T11:16:35;14.85;;;10.63;;
20073;SDS011;10197;54.282;10.078;2024-02-26T11:19:02;13.55;;;9.65;;
20073;SDS011;10197;54.282;10.078;2024-02-26T11:21:29;15.13;;;10.50;;
20073;SDS011;10197;54.282;10.078;2024-02-26T11:24:04;14.43;;;10.55;;
20073;SDS011;10197;54.282;10.078;2024-02-26T11:26:32;13.95;;;10.23;;
20073;SDS011;10197;54.282;10.078;2024-02-26T11:28:59;15.60;;;11.27;;
20073;SDS011;10197;54.282;10.078;2024-02-26T11:31:29;14.65;;;10.73;;
20073;SDS011;10197;54.282;10.078;2024-02-26T11:33:57;15.07;;;9.38;;
20073;SDS011;10197;54.282;10.078;2024-02-26T11:36:24;14.35;;;10.98;;
20073;SDS011;10197;54.282;10.078;2024-02-26T11:38:50;14.68;;;10.88;;
20073;SDS011;10197;54.282;10.078;2024-02-26T11:41:17;15.55;;;11.52;;
20073;SDS011;10197;54.282;10.078;2024-02-26T11:43:49;16.88;;;11.55;;
20073;SDS011;10197;54.282;10.078;2024-02-26T11:46:24;14.05;;;11.32;;
20073;SDS011;10197;54.282;10.078;2024-02-26T11:48:54;14.95;;;11.43;;
20073;SDS011;10197;54.282;10.078;2024-02-26T11:51:28;17.73;;;12.05;;
20073;SDS011;10197;54.282;10.078;2024-02-26T11:53:59;18.20;;;11.43;;
20073;SDS011;10197;54.282;10.078;2024-02-26T11:56:25;15.10;;;11.45;;
20073;SDS011;10197;54.282;10.078;2024-02-26T11:58:59;14.02;;;10.63;;
20073;SDS011;10197;54.282;10.078;2024-02-26T12:01:44;15.35;;;11.73;;
20073;SDS011;10197;54.282;10.078;2024-02-26T12:04:27;14.57;;;10.95;;
20073;SDS011;10197;54.282;10.078;2024-02-26T12:06:57;14.13;;;10.77;;
20073;SDS011;10197;54.282;10.078;2024-02-26T12:09:30;16.67;;;13.68;;
20073;SDS011;10197;54.282;10.078;2024-02-26T12:11:57;14.13;;;11.35;;
20073;SDS011;10197;54.282;10.078;2024-02-26T12:14:25;12.88;;;10.52;;
20073;SDS011;10197;54.282;10.078;2024-02-26T12:16:52;12.52;;;10.02;;
20073;SDS011;10197;54.282;10.078;2024-02-26T12:19:20;12.98;;;10.20;;
20073;SDS011;10197;54.282;10.078;2024-02-26T12:21:50;11.43;;;9.13;;
20073;SDS011;10197;54.282;10.078;2024-02-26T12:24:18;11.98;;;9.40;;
20073;SDS011;10197;54.282;10.078;2024-02-26T12:26:45;10.73;;;8.18;;
20073;SDS011;10197;54.282;10.078;2024-02-26T12:29:11;11.40;;;8.68;;
20073;SDS011;10197;54.282;10.078;2024-02-26T12:31:38;10.27;;;8.55;;
20073;SDS011;10197;54.282;10.078;2024-02-26T12:34:06;11.73;;;8.45;;
20073;SDS011;10197;54.282;10.078;2024-02-26T12:36:36;10.10;;;7.78;;
20073;SDS011;10197;54.282;10.078;2024-02-26T12:39:03;11.55;;;8.43;;
20073;SDS011;10197;54.282;10.078;2024-02-26T12:41:33;11.60;;;8.75;;
20073;SDS011;10197;54.282;10.078;2024-02-26T12:44:00;9.65;;;8.07;;
20073;SDS011;10197;54.282;10.078;2024-02-26T12:46:27;10.25;;;7.70;;
20073;SDS011;10197;54.282;10.078;2024-02-26T12:48:55;10.43;;;8.40;;
20073;SDS011;10197;54.282;10.078;2024-02-26T12:51:23;9.48;;;7.25;;
20073;SDS011;10197;54.282;10.078;2024-02-26T12:53:52;8.98;;;7.15;;
20073;SDS011;10197;54.282;10.078;2024-02-26T12:56:21;8.90;;;6.97;;
20073;SDS011;10197;54.282;10.078;2024-02-26T12:58:48;9.18;;;7.35;;
20073;SDS011;10197;54.282;10.078;2024-02-26T13:01:17;9.73;;;8.02;;
20073;SDS011;10197;54.282;10.078;2024-02-26T13:03:46;32.15;;;20.27;;
20073;SDS011;10197;54.282;10.078;2024-02-26T13:06:13;13.35;;;10.65;;
20073;SDS011;10197;54.282;10.078;2024-02-26T13:08:40;11.63;;;8.50;;
20073;SDS011;10197;54.282;10.078;2024-02-26T13:11:09;17.63;;;12.95;;
20073;SDS011;10197;54.282;10.078;2024-02-26T13:13:36;10.60;;;8.43;;
20073;SDS011;10197;54.282;10.078;2024-02-26T13:16:03;10.00;;;8.07;;
20073;SDS011;10197;54.282;10.078;2024-02-26T13:18:32;10.70;;;8.00;;
20073;SDS011;10197;54.282;10.078;2024-02-26T13:21:11;9.95;;;7.43;;
20073;SDS011;10197;54.282;10.078;2024-02-26T13:23:41;8.98;;;7.93;;
20073;SDS011;10197;54.282;10.078;2024-02-26T13:26:11;11.43;;;8.13;;
20073;SDS011;10197;54.282;10.078;2024-02-26T13:28:38;11.13;;;8.60;;
20073;SDS011;10197;54.282;10.078;2024-02-26T13:31:05;12.48;;;8.68;;
20073;SDS011;10197;54.282;10.078;2024-02-26T13:33:33;12.90;;;9.35;;
20073;SDS011;10197;54.282;10.078;2024-02-26T13:36:00;11.52;;;8.65;;
20073;SDS011;10197;54.282;10.078;2024-02-26T13:38:27;9.45;;;8.07;;
20073;SDS011;10197;54.282;10.078;2024-02-26T13:40:54;11.48;;;8.13;;
20073;SDS011;10197;54.282;10.078;2024-02-26T13:43:22;10.93;;;8.63;;
20073;SDS011;10197;54.282;10.078;2024-02-26T13:45:49;11.93;;;9.20;;
20073;SDS011;10197;54.282;10.078;2024-02-26T13:48:16;11.15;;;8.48;;
20073;SDS011;10197;54.282;10.078;2024-02-26T13:50:43;12.07;;;9.25;;
20073;SDS011;10197;54.282;10.078;2024-02-26T13:53:10;10.10;;;7.55;;
20073;SDS011;10197;54.282;10.078;2024-02-26T13:55:37;13.27;;;9.52;;
20073;SDS011;10197;54.282;10.078;2024-02-26T13:58:05;15.30;;;9.43;;
20073;SDS011;10197;54.282;10.078;2024-02-26T14:00:33;11.43;;;8.73;;
20073;SDS011;10197;54.282;10.078;2024-02-26T14:03:01;11.02;;;8.95;;
20073;SDS011;10197;54.282;10.078;2024-02-26T14:05:29;11.63;;;8.88;;
20073;SDS011;10197;54.282;10.078;2024-02-26T14:07:56;12.15;;;8.77;;
20073;SDS011;10197;54.282;10.078;2024-02-26T14:10:22;11.27;;;9.10;;
20073;SDS011;10197;54.282;10.078;2024-02-26T14:12:49;12.13;;;9.55;;
20073;SDS011;10197;54.282;10.078;2024-02-26T14:15:16;14.40;;;9.77;;
20073;SDS011;10197;54.282;10.078;2024-02-26T14:17:44;12.48;;;9.27;;